sensor_id;sensor_type;location;lat;lon;timestamp;pressure;altitude;pressure_sealevel;temperature;humidity
64886;BME280;51514;52.206;5.114;2023-08-17T00:02:14;102201.91;;;25.86;58.20
64886;BME280;51514;52.206;5.114;2023-08-17T00:04:39;102187.25;;;25.86;58.29
64886;BME280;51514;52.206;5.114;2023-08-17T00:07:05;102202.75;;;25.87;58.29
64886;BME280;51514;52.206;5.114;2023-08-17T00:09:31;102190.00;;;25.86;58.31
64886;BME280;51514;52.206;5.114;2023-08-17T00:11:56;102197.72;;;25.84;58.32
64886;BME280;51514;52.206;5.114;2023-08-17T00:14:22;102199.63;;;25.83;58.30
64886;BME280;51514;52.206;5.114;2023-08-17T00:16:49;102191.56;;;25.81;58.16
64886;BME280;51514;52.206;5.114;2023-08-17T00:19:14;102194.31;;;25.81;58.43
64886;BME280;51514;52.206;5.114;2023-08-17T00:21:40;102204.53;;;25.81;58.31
64886;BME280;51514;52.206;5.114;2023-08-17T00:24:05;102204.53;;;25.81;58.19
64886;BME280;51514;52.206;5.114;2023-08-17T00:26:31;102194.53;;;25.80;58.36
64886;BME280;51514;52.206;5.114;2023-08-17T00:28:56;102205.59;;;25.80;58.32
64886;BME280;51514;52.206;5.114;2023-08-17T00:31:21;102199.44;;;25.78;58.17
64886;BME280;51514;52.206;5.114;2023-08-17T00:33:47;102193.91;;;25.78;58.32
64886;BME280;51514;52.206;5.114;2023-08-17T00:36:12;102201.38;;;25.77;58.22
64886;BME280;51514;52.206;5.114;2023-08-17T00:38:37;102201.59;;;25.76;57.81
64886;BME280;51514;52.206;5.114;2023-08-17T00:41:03;102201.81;;;25.74;58.29
64886;BME280;51514;52.206;5.114;2023-08-17T00:43:28;102201.81;;;25.74;58.45
64886;BME280;51514;52.206;5.114;2023-08-17T00:45:54;102189.94;;;25.74;58.36
64886;BME280;51514;52.206;5.114;2023-08-17T00:48:19;102192.69;;;25.74;58.36
64886;BME280;51514;52.206;5.114;2023-08-17T00:50:48;102196.75;;;25.71;58.16
64886;BME280;51514;52.206;5.114;2023-08-17T00:53:15;102192.91;;;25.72;58.10
64886;BME280;51514;52.206;5.114;2023-08-17T00:55:42;102195.69;;;25.72;58.18
64886;BME280;51514;52.206;5.114;2023-08-17T00:58:07;102195.91;;;25.71;58.45
64886;BME280;51514;52.206;5.114;2023-08-17T01:00:33;102180.19;;;25.71;58.50
64886;BME280;51514;52.206;5.114;2023-08-17T01:02:58;102177.63;;;25.70;58.25
64886;BME280;51514;52.206;5.114;2023-08-17T01:05:24;102176.78;;;25.69;58.29
64886;BME280;51514;52.206;5.114;2023-08-17T01:07:49;102187.00;;;25.69;58.18
64886;BME280;51514;52.206;5.114;2023-08-17T01:10:15;102174.25;;;25.68;58.36
64886;BME280;51514;52.206;5.114;2023-08-17T01:12:55;102177.22;;;25.66;58.16
64886;BME280;51514;52.206;5.114;2023-08-17T01:20:53;102176.59;;;25.64;58.17
64886;BME280;51514;52.206;5.114;2023-08-17T01:23:18;102166.66;;;25.63;58.42
64886;BME280;51514;52.206;5.114;2023-08-17T01:25:44;102170.22;;;25.64;58.39
64886;BME280;51514;52.206;5.114;2023-08-17T01:28:10;102161.94;;;25.64;58.35
64886;BME280;51514;52.206;5.114;2023-08-17T01:30:48;102170.06;;;25.59;58.41
64886;BME280;51514;52.206;5.114;2023-08-17T01:33:25;102167.09;;;25.60;58.41
64886;BME280;51514;52.206;5.114;2023-08-17T01:36:45;102169.22;;;25.58;58.40
64886;BME280;51514;52.206;5.114;2023-08-17T01:38:52;102166.22;;;25.60;58.36
64886;BME280;51514;52.206;5.114;2023-08-17T01:41:20;102178.84;;;25.49;58.70
64886;BME280;51514;52.206;5.114;2023-08-17T01:43:47;102172.81;;;25.59;58.38
64886;BME280;51514;52.206;5.114;2023-08-17T01:46:14;102181.94;;;25.59;58.27
64886;BME280;51514;52.206;5.114;2023-08-17T01:48:43;102171.97;;;25.58;58.19
64886;BME280;51514;52.206;5.114;2023-08-17T01:51:10;102177.50;;;25.58;58.43
64886;BME280;51514;52.206;5.114;2023-08-17T01:53:36;102184.09;;;25.57;58.33
64886;BME280;51514;52.206;5.114;2023-08-17T01:56:02;102184.09;;;25.57;58.45
64886;BME280;51514;52.206;5.114;2023-08-17T01:58:27;102176.88;;;25.56;58.31
64886;BME280;51514;52.206;5.114;2023-08-17T02:00:52;102175.16;;;25.55;58.50
64886;BME280;51514;52.206;5.114;2023-08-17T02:03:18;102180.69;;;25.55;58.54
64886;BME280;51514;52.206;5.114;2023-08-17T02:05:47;102174.53;;;25.53;58.45
64886;BME280;51514;52.206;5.114;2023-08-17T02:08:12;102179.00;;;25.54;58.39
64886;BME280;51514;52.206;5.114;2023-08-17T02:10:38;102175.66;;;25.52;58.38
64886;BME280;51514;52.206;5.114;2023-08-17T02:13:04;102181.16;;;25.52;58.44
64886;BME280;51514;52.206;5.114;2023-08-17T02:15:30;102176.72;;;25.51;58.32
64886;BME280;51514;52.206;5.114;2023-08-17T02:17:59;102169.28;;;25.52;58.36
64886;BME280;51514;52.206;5.114;2023-08-17T02:20:24;102166.41;;;25.40;58.50
64886;BME280;51514;52.206;5.114;2023-08-17T02:22:50;102160.59;;;25.48;58.43
64886;BME280;51514;52.206;5.114;2023-08-17T02:25:15;102162.50;;;25.48;58.44
64886;BME280;51514;52.206;5.114;2023-08-17T02:27:40;102166.34;;;25.46;58.27
64886;BME280;51514;52.206;5.114;2023-08-17T02:30:06;102164.41;;;25.47;58.36
64886;BME280;51514;52.206;5.114;2023-08-17T02:32:32;102159.97;;;25.46;58.31
64886;BME280;51514;52.206;5.114;2023-08-17T02:34:57;102156.13;;;25.47;58.29
64886;BME280;51514;52.206;5.114;2023-08-17T02:37:22;102160.81;;;25.46;58.42
64886;BME280;51514;52.206;5.114;2023-08-17T02:39:48;102154.44;;;25.46;58.38
64886;BME280;51514;52.206;5.114;2023-08-17T02:42:13;102154.66;;;25.44;58.43
64886;BME280;51514;52.206;5.114;2023-08-17T02:44:38;102156.56;;;25.44;58.36
64886;BME280;51514;52.206;5.114;2023-08-17T02:47:04;102150.19;;;25.43;58.37
64886;BME280;51514;52.206;5.114;2023-08-17T02:49:29;102143.81;;;25.43;58.33
64886;BME280;51514;52.206;5.114;2023-08-17T02:51:55;102149.34;;;25.43;58.40
64886;BME280;51514;52.206;5.114;2023-08-17T02:54:20;102154.03;;;25.42;58.49
64886;BME280;51514;52.206;5.114;2023-08-17T02:56:45;102143.22;;;25.41;58.47
64886;BME280;51514;52.206;5.114;2023-08-17T02:59:11;102153.44;;;25.40;58.38
64886;BME280;51514;52.206;5.114;2023-08-17T03:01:36;102149.81;;;25.40;58.46
64886;BME280;51514;52.206;5.114;2023-08-17T03:04:02;102154.72;;;25.38;58.45
64886;BME280;51514;52.206;5.114;2023-08-17T03:06:27;102148.13;;;25.39;58.39
64886;BME280;51514;52.206;5.114;2023-08-17T03:08:52;102152.81;;;25.38;58.31
64886;BME280;51514;52.206;5.114;2023-08-17T03:11:19;102150.28;;;25.37;58.42
64886;BME280;51514;52.206;5.114;2023-08-17T03:13:45;102153.88;;;25.37;58.35
64886;BME280;51514;52.206;5.114;2023-08-17T03:16:12;102163.22;;;25.36;58.38
64886;BME280;51514;52.206;5.114;2023-08-17T03:18:38;102161.53;;;25.35;58.37
64886;BME280;51514;52.206;5.114;2023-08-17T03:21:03;102163.44;;;25.35;58.44
64886;BME280;51514;52.206;5.114;2023-08-17T03:23:28;102157.94;;;25.35;58.34
64886;BME280;51514;52.206;5.114;2023-08-17T03:25:54;102167.28;;;25.34;58.20
64886;BME280;51514;52.206;5.114;2023-08-17T03:28:19;102156.44;;;25.32;58.45
64886;BME280;51514;52.206;5.114;2023-08-17T03:30:45;102156.44;;;25.32;58.31
64886;BME280;51514;52.206;5.114;2023-08-17T03:33:10;102160.28;;;25.31;58.06
64886;BME280;51514;52.206;5.114;2023-08-17T03:35:35;102153.94;;;25.31;58.37
64886;BME280;51514;52.206;5.114;2023-08-17T03:38:01;102145.66;;;25.31;58.45
64886;BME280;51514;52.206;5.114;2023-08-17T03:40:26;102139.28;;;25.30;58.52
64886;BME280;51514;52.206;5.114;2023-08-17T03:42:51;102142.06;;;25.30;58.38
64886;BME280;51514;52.206;5.114;2023-08-17T03:45:17;102143.97;;;25.30;58.36
64886;BME280;51514;52.206;5.114;2023-08-17T03:47:43;102146.94;;;25.28;58.39
64886;BME280;51514;52.206;5.114;2023-08-17T03:50:09;102144.19;;;25.28;58.42
64886;BME280;51514;52.206;5.114;2023-08-17T03:52:34;102147.78;;;25.29;58.28
64886;BME280;51514;52.206;5.114;2023-08-17T03:55:00;102140.56;;;25.28;58.42
64886;BME280;51514;52.206;5.114;2023-08-17T03:57:25;102141.66;;;25.27;58.52
64886;BME280;51514;52.206;5.114;2023-08-17T03:59:50;102137.19;;;25.26;58.42
64886;BME280;51514;52.206;5.114;2023-08-17T04:02:16;102141.66;;;25.27;58.42
64886;BME280;51514;52.206;5.114;2023-08-17T04:04:41;102146.53;;;25.25;58.49
64886;BME280;51514;52.206;5.114;2023-08-17T04:07:06;102145.69;;;25.24;58.40
64886;BME280;51514;52.206;5.114;2023-08-17T04:09:32;102144.84;;;25.24;58.43
64886;BME280;51514;52.206;5.114;2023-08-17T04:11:58;102136.56;;;25.24;58.26
64886;BME280;51514;52.206;5.114;2023-08-17T04:14:24;102145.91;;;25.23;58.47
64886;BME280;51514;52.206;5.114;2023-08-17T04:16:49;102145.91;;;25.23;58.53
64886;BME280;51514;52.206;5.114;2023-08-17T04:19:15;102141.47;;;25.22;58.31
64886;BME280;51514;52.206;5.114;2023-08-17T04:21:40;102153.34;;;25.22;58.52
64886;BME280;51514;52.206;5.114;2023-08-17T04:24:06;102146.13;;;25.21;58.42
64886;BME280;51514;52.206;5.114;2023-08-17T04:26:31;102150.81;;;25.21;58.37
64886;BME280;51514;52.206;5.114;2023-08-17T04:28:56;102149.97;;;25.20;58.20
64886;BME280;51514;52.206;5.114;2023-08-17T04:31:22;102152.97;;;25.19;58.56
64886;BME280;51514;52.206;5.114;2023-08-17T04:33:47;102149.16;;;25.20;58.37
64886;BME280;51514;52.206;5.114;2023-08-17T04:36:12;102147.44;;;25.19;58.52
64886;BME280;51514;52.206;5.114;2023-08-17T04:38:38;102150.22;;;25.19;58.31
64886;BME280;51514;52.206;5.114;2023-08-17T04:41:03;102145.75;;;25.18;58.40
64886;BME280;51514;52.206;5.114;2023-08-17T04:43:29;102147.44;;;25.19;58.57
64886;BME280;51514;52.206;5.114;2023-08-17T04:45:54;102145.75;;;25.18;58.41
64886;BME280;51514;52.206;5.114;2023-08-17T04:48:19;102144.06;;;25.17;58.33
64886;BME280;51514;52.206;5.114;2023-08-17T04:50:45;102134.94;;;25.16;58.49
64886;BME280;51514;52.206;5.114;2023-08-17T04:53:10;102134.94;;;25.16;58.40
64886;BME280;51514;52.206;5.114;2023-08-17T04:55:36;102125.81;;;25.16;58.33
64886;BME280;51514;52.206;5.114;2023-08-17T04:58:01;102124.97;;;25.15;58.21
64886;BME280;51514;52.206;5.114;2023-08-17T05:00:27;102122.41;;;25.14;58.38
64886;BME280;51514;52.206;5.114;2023-08-17T05:02:55;102120.50;;;25.14;58.30
64886;BME280;51514;52.206;5.114;2023-08-17T05:05:21;102131.53;;;25.14;58.17
64886;BME280;51514;52.206;5.114;2023-08-17T05:07:46;102127.94;;;25.14;58.37
64886;BME280;51514;52.206;5.114;2023-08-17T05:10:12;102125.19;;;25.14;58.42
64886;BME280;51514;52.206;5.114;2023-08-17T05:12:37;102123.47;;;25.13;58.34
64886;BME280;51514;52.206;5.114;2023-08-17T05:15:03;102119.88;;;25.12;58.33
64886;BME280;51514;52.206;5.114;2023-08-17T05:17:28;102117.34;;;25.10;58.39
64886;BME280;51514;52.206;5.114;2023-08-17T05:19:54;102131.97;;;25.11;58.42
64886;BME280;51514;52.206;5.114;2023-08-17T05:22:19;102128.38;;;25.10;58.41
64886;BME280;51514;52.206;5.114;2023-08-17T05:24:44;102130.06;;;25.12;58.38
64886;BME280;51514;52.206;5.114;2023-08-17T05:27:10;102132.84;;;25.12;58.27
64886;BME280;51514;52.206;5.114;2023-08-17T05:29:35;102133.06;;;25.35;57.83
64886;BME280;51514;52.206;5.114;2023-08-17T05:32:01;102126.47;;;25.36;57.51
64886;BME280;51514;52.206;5.114;2023-08-17T05:34:26;102122.06;;;25.53;57.05
64886;BME280;51514;52.206;5.114;2023-08-17T05:36:51;102124.31;;;25.20;57.94
64886;BME280;51514;52.206;5.114;2023-08-17T05:39:17;102123.53;;;25.06;58.35
64886;BME280;51514;52.206;5.114;2023-08-17T05:41:42;102121.44;;;25.01;58.59
64886;BME280;51514;52.206;5.114;2023-08-17T05:44:07;102119.97;;;24.99;58.54
64886;BME280;51514;52.206;5.114;2023-08-17T05:46:33;102121.91;;;24.98;58.37
64886;BME280;51514;52.206;5.114;2023-08-17T05:49:00;102131.00;;;24.99;58.80
64886;BME280;51514;52.206;5.114;2023-08-17T05:51:25;102131.84;;;24.99;58.60
64886;BME280;51514;52.206;5.114;2023-08-17T05:53:51;102135.72;;;24.98;58.63
64886;BME280;51514;52.206;5.114;2023-08-17T05:56:16;102136.53;;;24.99;58.69
64886;BME280;51514;52.206;5.114;2023-08-17T05:58:42;102138.47;;;24.98;58.68
64886;BME280;51514;52.206;5.114;2023-08-17T06:01:08;102142.91;;;24.99;58.62
64886;BME280;51514;52.206;5.114;2023-08-17T06:03:34;102140.97;;;25.00;58.60
64886;BME280;51514;52.206;5.114;2023-08-17T06:06:00;102143.75;;;25.00;58.42
64886;BME280;51514;52.206;5.114;2023-08-17T06:08:26;102145.66;;;24.99;58.82
64886;BME280;51514;52.206;5.114;2023-08-17T06:10:51;102142.03;;;24.99;58.72
64886;BME280;51514;52.206;5.114;2023-08-17T06:13:16;102134.00;;;24.97;58.65
64886;BME280;51514;52.206;5.114;2023-08-17T06:15:42;102144.00;;;24.98;58.72
64886;BME280;51514;52.206;5.114;2023-08-17T06:18:08;102148.41;;;24.99;58.78
64886;BME280;51514;52.206;5.114;2023-08-17T06:20:33;102142.91;;;24.99;58.71
64886;BME280;51514;52.206;5.114;2023-08-17T06:22:58;102146.75;;;24.98;58.82
64886;BME280;51514;52.206;5.114;2023-08-17T06:25:24;102150.31;;;24.99;58.80
64886;BME280;51514;52.206;5.114;2023-08-17T06:27:51;102148.41;;;24.99;58.78
64886;BME280;51514;52.206;5.114;2023-08-17T06:30:16;102157.78;;;24.98;58.85
64886;BME280;51514;52.206;5.114;2023-08-17T06:32:42;102160.56;;;24.98;58.85
64886;BME280;51514;52.206;5.114;2023-08-17T06:35:08;102159.69;;;24.98;58.91
64886;BME280;51514;52.206;5.114;2023-08-17T06:37:33;102162.47;;;24.98;58.71
64886;BME280;51514;52.206;5.114;2023-08-17T06:39:59;102165.22;;;24.98;58.59
64886;BME280;51514;52.206;5.114;2023-08-17T06:42:24;102163.53;;;24.97;58.62
64886;BME280;51514;52.206;5.114;2023-08-17T06:44:49;102160.97;;;24.95;58.64
64886;BME280;51514;52.206;5.114;2023-08-17T06:47:15;102159.91;;;24.96;58.42
64886;BME280;51514;52.206;5.114;2023-08-17T06:49:40;102163.75;;;24.95;58.49
64886;BME280;51514;52.206;5.114;2023-08-17T06:52:06;102168.19;;;24.96;58.61
64886;BME280;51514;52.206;5.114;2023-08-17T06:54:31;102158.22;;;24.95;58.49
64886;BME280;51514;52.206;5.114;2023-08-17T06:56:57;102165.88;;;24.93;58.63
64886;BME280;51514;52.206;5.114;2023-08-17T06:59:23;102164.81;;;24.94;58.55
64886;BME280;51514;52.206;5.114;2023-08-17T07:01:48;102169.69;;;24.92;58.51
64886;BME280;51514;52.206;5.114;2023-08-17T07:04:14;102171.38;;;24.93;58.66
64886;BME280;51514;52.206;5.114;2023-08-17T07:06:39;102175.00;;;24.94;58.54
64886;BME280;51514;52.206;5.114;2023-08-17T07:09:06;102173.09;;;24.94;58.71
64886;BME280;51514;52.206;5.114;2023-08-17T07:11:31;102172.25;;;24.94;58.72
64886;BME280;51514;52.206;5.114;2023-08-17T07:13:57;102170.31;;;24.94;58.45
64886;BME280;51514;52.206;5.114;2023-08-17T07:16:23;102174.78;;;24.95;58.47
64886;BME280;51514;52.206;5.114;2023-08-17T07:18:48;102176.69;;;24.95;58.62
64886;BME280;51514;52.206;5.114;2023-08-17T07:21:13;102179.25;;;24.96;58.64
64886;BME280;51514;52.206;5.114;2023-08-17T07:23:43;102174.56;;;24.97;58.42
64886;BME280;51514;52.206;5.114;2023-08-17T07:26:08;102177.09;;;24.98;58.39
64886;BME280;51514;52.206;5.114;2023-08-17T07:28:34;102169.44;;;25.00;58.38
64886;BME280;51514;52.206;5.114;2023-08-17T07:30:59;102170.06;;;25.02;58.44
64886;BME280;51514;52.206;5.114;2023-08-17T07:33:24;102167.28;;;25.02;58.31
64886;BME280;51514;52.206;5.114;2023-08-17T07:35:50;102161.56;;;25.04;58.33
64886;BME280;51514;52.206;5.114;2023-08-17T07:38:15;102163.03;;;25.06;58.41
64886;BME280;51514;52.206;5.114;2023-08-17T07:40:40;102154.53;;;25.08;58.45
64886;BME280;51514;52.206;5.114;2023-08-17T07:43:08;102155.97;;;25.10;58.56
64886;BME280;51514;52.206;5.114;2023-08-17T07:45:33;102168.50;;;25.13;58.61
64886;BME280;51514;52.206;5.114;2023-08-17T07:47:58;102163.59;;;25.15;58.55
64886;BME280;51514;52.206;5.114;2023-08-17T07:50:24;102168.69;;;25.18;58.73
64886;BME280;51514;52.206;5.114;2023-08-17T07:52:49;102167.16;;;25.22;58.41
64886;BME280;51514;52.206;5.114;2023-08-17T07:55:14;102169.91;;;25.22;58.46
64886;BME280;51514;52.206;5.114;2023-08-17T07:57:40;102180.53;;;25.25;58.57
64886;BME280;51514;52.206;5.114;2023-08-17T08:00:06;102179.44;;;25.26;58.52
64886;BME280;51514;52.206;5.114;2023-08-17T08:02:31;102176.47;;;25.28;58.36
64886;BME280;51514;52.206;5.114;2023-08-17T08:04:56;102176.03;;;25.31;58.37
64886;BME280;51514;52.206;5.114;2023-08-17T08:07:22;102173.28;;;25.31;58.36
64886;BME280;51514;52.206;5.114;2023-08-17T08:09:47;102170.25;;;25.32;58.43
64886;BME280;51514;52.206;5.114;2023-08-17T08:12:12;102175.78;;;25.32;58.37
64886;BME280;51514;52.206;5.114;2023-08-17T08:14:38;102171.72;;;25.35;58.43
64886;BME280;51514;52.206;5.114;2023-08-17T08:17:03;102166.00;;;25.36;58.41
64886;BME280;51514;52.206;5.114;2023-08-17T08:19:29;102166.00;;;25.36;58.17
64886;BME280;51514;52.206;5.114;2023-08-17T08:21:54;102168.53;;;25.38;58.48
64886;BME280;51514;52.206;5.114;2023-08-17T08:24:19;102154.72;;;25.38;58.46
64886;BME280;51514;52.206;5.114;2023-08-17T08:26:45;102151.75;;;25.39;58.42
64886;BME280;51514;52.206;5.114;2023-08-17T08:29:10;102160.88;;;25.40;58.38
64886;BME280;51514;52.206;5.114;2023-08-17T08:31:35;102160.88;;;25.40;58.48
64886;BME280;51514;52.206;5.114;2023-08-17T08:34:01;102163.41;;;25.41;58.51
64886;BME280;51514;52.206;5.114;2023-08-17T08:36:26;102168.69;;;25.43;58.25
64886;BME280;51514;52.206;5.114;2023-08-17T08:38:51;102159.13;;;25.45;58.36
64886;BME280;51514;52.206;5.114;2023-08-17T08:41:17;102165.47;;;25.46;58.32
64886;BME280;51514;52.206;5.114;2023-08-17T08:43:42;102145.09;;;25.47;58.37
64886;BME280;51514;52.206;5.114;2023-08-17T08:46:09;102150.38;;;25.49;58.62
64886;BME280;51514;52.206;5.114;2023-08-17T08:48:35;102145.47;;;25.51;58.34
64886;BME280;51514;52.206;5.114;2023-08-17T08:51:03;102149.09;;;25.51;58.35
64886;BME280;51514;52.206;5.114;2023-08-17T08:53:44;102146.78;;;25.48;58.42
64886;BME280;51514;52.206;5.114;2023-08-17T08:56:11;102150.53;;;25.54;58.57
64886;BME280;51514;52.206;5.114;2023-08-17T08:58:40;102143.09;;;25.54;58.27
64886;BME280;51514;52.206;5.114;2023-08-17T09:01:08;102144.56;;;25.57;58.36
64886;BME280;51514;52.206;5.114;2023-08-17T09:03:35;102135.44;;;25.56;58.36
64886;BME280;51514;52.206;5.114;2023-08-17T09:06:02;102140.50;;;25.59;58.45
64886;BME280;51514;52.206;5.114;2023-08-17T09:08:30;102135.84;;;25.60;58.52
64886;BME280;51514;52.206;5.114;2023-08-17T09:10:56;102136.72;;;25.60;59.10
64886;BME280;51514;52.206;5.114;2023-08-17T09:13:21;102127.13;;;25.63;59.22
64886;BME280;51514;52.206;5.114;2023-08-17T09:15:47;102139.63;;;25.65;58.92
64886;BME280;51514;52.206;5.114;2023-08-17T09:18:12;102133.66;;;25.68;58.97
64886;BME280;51514;52.206;5.114;2023-08-17T09:20:41;102132.59;;;25.69;59.01
64886;BME280;51514;52.206;5.114;2023-08-17T09:23:18;102124.28;;;25.69;59.02
64886;BME280;51514;52.206;5.114;2023-08-17T09:25:48;102132.72;;;25.74;58.83
64886;BME280;51514;52.206;5.114;2023-08-17T09:28:18;102131.66;;;25.75;58.75
64886;BME280;51514;52.206;5.114;2023-08-17T09:30:52;102122.28;;;25.76;58.84
64886;BME280;51514;52.206;5.114;2023-08-17T09:33:22;102125.22;;;25.81;58.83
64886;BME280;51514;52.206;5.114;2023-08-17T09:35:49;102109.50;;;25.82;59.11
64886;BME280;51514;52.206;5.114;2023-08-17T09:38:15;102109.00;;;25.85;59.14
64886;BME280;51514;52.206;5.114;2023-08-17T09:40:40;102106.88;;;25.87;58.91
64886;BME280;51514;52.206;5.114;2023-08-17T09:43:06;102106.66;;;25.89;59.02
64886;BME280;51514;52.206;5.114;2023-08-17T09:45:31;102113.88;;;25.90;59.04
64886;BME280;51514;52.206;5.114;2023-08-17T09:47:59;102107.28;;;25.91;59.14
64886;BME280;51514;52.206;5.114;2023-08-17T09:50:25;102109.81;;;25.92;59.04
64886;BME280;51514;52.206;5.114;2023-08-17T09:52:54;102095.75;;;25.94;59.42
64886;BME280;51514;52.206;5.114;2023-08-17T09:55:22;102099.16;;;25.96;59.56
64886;BME280;51514;52.206;5.114;2023-08-17T09:57:48;102103.25;;;25.87;59.83
64886;BME280;51514;52.206;5.114;2023-08-17T10:00:14;102103.13;;;26.00;59.61
64886;BME280;51514;52.206;5.114;2023-08-17T10:02:40;102093.31;;;26.04;59.83
64886;BME280;51514;52.206;5.114;2023-08-17T10:05:05;102101.13;;;26.07;59.51
64886;BME280;51514;52.206;5.114;2023-08-17T10:07:36;102095.13;;;26.10;59.42
64886;BME280;51514;52.206;5.114;2023-08-17T10:10:05;102095.75;;;26.12;59.57
64886;BME280;51514;52.206;5.114;2023-08-17T10:12:53;102090.44;;;26.10;59.55
64886;BME280;51514;52.206;5.114;2023-08-17T10:15:23;102099.75;;;26.16;59.36
64886;BME280;51514;52.206;5.114;2023-08-17T10:18:00;102096.38;;;26.14;59.20
64886;BME280;51514;52.206;5.114;2023-08-17T10:20:29;102090.38;;;26.17;59.39
64886;BME280;51514;52.206;5.114;2023-08-17T10:23:05;102091.47;;;26.16;59.07
64886;BME280;51514;52.206;5.114;2023-08-17T10:25:32;102092.53;;;26.15;59.11
64886;BME280;51514;52.206;5.114;2023-08-17T10:27:58;102081.47;;;26.15;59.25
64886;BME280;51514;52.206;5.114;2023-08-17T10:30:25;102087.22;;;26.13;58.92
64886;BME280;51514;52.206;5.114;2023-08-17T10:32:50;102087.22;;;26.13;58.93
64886;BME280;51514;52.206;5.114;2023-08-17T10:35:16;102091.91;;;26.13;58.82
64886;BME280;51514;52.206;5.114;2023-08-17T10:37:42;102095.53;;;26.13;58.99
64886;BME280;51514;52.206;5.114;2023-08-17T10:40:08;102090.84;;;26.14;58.76
64886;BME280;51514;52.206;5.114;2023-08-17T10:42:35;102086.16;;;26.14;58.72
64886;BME280;51514;52.206;5.114;2023-08-17T10:45:24;102083.63;;;26.13;58.94
64886;BME280;51514;52.206;5.114;2023-08-17T10:47:47;102078.09;;;26.13;58.83
64886;BME280;51514;52.206;5.114;2023-08-17T10:50:23;102076.84;;;26.09;58.91
64886;BME280;51514;52.206;5.114;2023-08-17T10:52:50;102078.09;;;26.13;59.00
64886;BME280;51514;52.206;5.114;2023-08-17T10:55:16;102076.16;;;26.13;58.95
64886;BME280;51514;52.206;5.114;2023-08-17T10:57:43;102081.47;;;26.15;58.96
64886;BME280;51514;52.206;5.114;2023-08-17T11:00:15;102082.31;;;26.15;58.73
64886;BME280;51514;52.206;5.114;2023-08-17T11:02:49;102085.31;;;26.14;58.96
64886;BME280;51514;52.206;5.114;2023-08-17T11:05:55;102082.38;;;26.09;58.87
64886;BME280;51514;52.206;5.114;2023-08-17T11:13:33;102089.16;;;26.13;59.00
64886;BME280;51514;52.206;5.114;2023-08-17T11:16:00;102085.31;;;26.14;58.79
64886;BME280;51514;52.206;5.114;2023-08-17T11:18:25;102079.56;;;26.15;58.84
64886;BME280;51514;52.206;5.114;2023-08-17T11:20:51;102079.56;;;26.15;58.88
64886;BME280;51514;52.206;5.114;2023-08-17T11:23:17;102075.72;;;26.16;58.75
64886;BME280;51514;52.206;5.114;2023-08-17T11:25:43;102080.97;;;26.18;58.78
64886;BME280;51514;52.206;5.114;2023-08-17T11:28:08;102077.38;;;26.17;58.88
64886;BME280;51514;52.206;5.114;2023-08-17T11:30:35;102075.22;;;26.19;58.80
64886;BME280;51514;52.206;5.114;2023-08-17T11:33:04;102071.63;;;26.19;58.88
64886;BME280;51514;52.206;5.114;2023-08-17T11:35:30;102078.84;;;26.20;58.89
64886;BME280;51514;52.206;5.114;2023-08-17T11:37:55;102071.78;;;26.24;58.86
64886;BME280;51514;52.206;5.114;2023-08-17T11:40:21;102077.94;;;26.26;58.79
64886;BME280;51514;52.206;5.114;2023-08-17T11:42:47;102080.69;;;26.26;58.67
64886;BME280;51514;52.206;5.114;2023-08-17T11:45:13;102083.44;;;26.26;58.71
64886;BME280;51514;52.206;5.114;2023-08-17T11:47:40;102075.38;;;26.25;58.63
64886;BME280;51514;52.206;5.114;2023-08-17T11:50:08;102073.69;;;26.24;58.82
64886;BME280;51514;52.206;5.114;2023-08-17T11:52:35;102070.69;;;26.25;58.69
64886;BME280;51514;52.206;5.114;2023-08-17T11:55:04;102067.09;;;26.25;58.48
64886;BME280;51514;52.206;5.114;2023-08-17T11:57:31;102068.59;;;26.27;58.52
64886;BME280;51514;52.206;5.114;2023-08-17T11:59:57;102071.34;;;26.27;58.67
64886;BME280;51514;52.206;5.114;2023-08-17T12:02:24;102082.41;;;26.27;58.73
64886;BME280;51514;52.206;5.114;2023-08-17T12:04:50;102080.50;;;26.28;58.76
64886;BME280;51514;52.206;5.114;2023-08-17T12:07:16;102075.81;;;26.28;58.61
64886;BME280;51514;52.206;5.114;2023-08-17T12:09:43;102075.16;;;26.26;58.60
64886;BME280;51514;52.206;5.114;2023-08-17T12:12:09;102070.69;;;26.25;58.64
64886;BME280;51514;52.206;5.114;2023-08-17T12:14:35;102068.16;;;26.24;58.74
64886;BME280;51514;52.206;5.114;2023-08-17T12:17:01;102065.63;;;26.22;58.70
64886;BME280;51514;52.206;5.114;2023-08-17T12:19:27;102067.53;;;26.22;58.66
64886;BME280;51514;52.206;5.114;2023-08-17T12:21:52;102066.69;;;26.21;58.87
64886;BME280;51514;52.206;5.114;2023-08-17T12:24:18;102057.34;;;26.22;58.85
64886;BME280;51514;52.206;5.114;2023-08-17T12:26:45;102063.72;;;26.23;58.70
64886;BME280;51514;52.206;5.114;2023-08-17T12:29:14;102064.56;;;26.23;58.85
64886;BME280;51514;52.206;5.114;2023-08-17T12:31:40;102058.78;;;26.25;58.62
64886;BME280;51514;52.206;5.114;2023-08-17T12:34:05;102051.56;;;26.24;58.53
64886;BME280;51514;52.206;5.114;2023-08-17T12:36:34;102067.78;;;26.20;58.52
64886;BME280;51514;52.206;5.114;2023-08-17T12:39:00;102058.63;;;26.19;58.75
64886;BME280;51514;52.206;5.114;2023-08-17T12:41:26;102064.38;;;26.18;58.65
64886;BME280;51514;52.206;5.114;2023-08-17T12:43:51;102062.72;;;26.17;58.72
64886;BME280;51514;52.206;5.114;2023-08-17T12:46:19;102062.97;;;26.15;58.77
64886;BME280;51514;52.206;5.114;2023-08-17T12:48:45;102064.88;;;26.15;58.90
64886;BME280;51514;52.206;5.114;2023-08-17T12:51:10;102073.41;;;26.13;58.81
64886;BME280;51514;52.206;5.114;2023-08-17T12:53:36;102070.63;;;26.13;58.93
64886;BME280;51514;52.206;5.114;2023-08-17T12:56:01;102065.09;;;26.13;58.81
64886;BME280;51514;52.206;5.114;2023-08-17T12:58:26;102070.88;;;26.12;59.12